Union, Iowa
Current Conditions -  °F | °C
As of 7:29 AM on Monday 22 Dec 2014 (Local Time) from KMIW Reporting Station
Haze Haze  
Wind Chill: 26°   Ceiling: 900
Heat Index: 36°   Visibility: 3mi
Dew Point: 35°   Wind: 16mph
Humidity: 97%   Direction: 140°SE
Pressure: 29.67"   Gusts: NA
Location:  42.25°N, 93.06°W
Report Text: KMIW 221329Z AUTO 14014KT 3SM BR BKN009 OVC017 02/02 A2967 RMK AO2 UPB21E22 P0000 T00220017
Loading
Personal Weather Stations






























Interactive Weather Map New forecast layout! Learn more

10-Day Weather Forecast

Advertisements
Track Severe Weather on mobile